Time;durP1;ratioP1;P1;durP2;ratioP2;P2;SDS_P1;SDS_P2;PMS_P1;PMS_P2;Temp;Humidity;BMP_temperature;BMP_pressure;BME280_temperature;BME280_humidity;BME280_pressure;Samples;Min_cycle;Max_cycle;Signal;HPM_P1;HPM_P2
2022/03/20 00:00:44;;;;;;;13.93;6.00;;;;;;;4.87;90.17;102972.94;5015682;28;20041;-78
2022/03/20 00:03:11;;;;;;;20.83;5.40;;;;;;;4.72;91.26;102961.50;5051947;28;20041;-79
2022/03/20 00:05:39;;;;;;;13.30;5.03;;;;;;;4.77;91.14;102966.81;5022889;28;20030;-80
2022/03/20 00:08:08;;;;;;;19.45;5.95;;;;;;;4.63;91.79;102969.81;5026444;28;20036;-80
2022/03/20 00:10:35;;;;;;;13.55;5.18;;;;;;;4.61;92.66;102960.81;5035101;28;20037;-80
2022/03/20 00:13:02;;;;;;;18.40;6.00;;;;;;;4.57;93.21;102962.66;5028712;28;20033;-80
2022/03/20 00:15:29;;;;;;;19.50;6.15;;;;;;;4.48;93.00;102945.72;5040046;28;20041;-80
2022/03/20 00:17:56;;;;;;;12.90;5.57;;;;;;;4.47;93.69;102946.63;5040138;28;20048;-80
2022/03/20 00:20:21;;;;;;;19.48;7.60;;;;;;;4.45;94.10;102943.94;5034027;28;20033;-80
2022/03/20 00:22:47;;;;;;;18.40;8.45;;;;;;;4.47;94.50;102941.19;5015069;28;20451;-80
2022/03/20 00:25:14;;;;;;;23.98;7.55;;;;;;;4.36;95.45;102930.56;5022365;28;20057;-80
2022/03/20 00:27:39;;;;;;;25.40;11.23;;;;;;;4.36;95.39;102919.72;5038524;28;20033;-79
2022/03/20 00:30:05;;;;;;;20.60;8.35;;;;;;;4.37;95.50;102916.09;5015240;28;20153;-79
2022/03/20 00:32:31;;;;;;;24.50;11.15;;;;;;;4.40;95.61;102910.59;5026752;28;20117;-79
2022/03/20 00:34:59;;;;;;;23.50;10.88;;;;;;;4.34;95.54;102917.03;5034329;28;20044;-80
2022/03/20 00:37:26;;;;;;;25.45;10.73;;;;;;;4.31;96.03;102905.34;5031390;28;20037;-80
2022/03/20 00:39:51;;;;;;;31.55;12.02;;;;;;;4.24;97.00;102910.00;5016898;28;20093;-80
2022/03/20 00:42:17;;;;;;;25.58;11.25;;;;;;;4.17;96.99;102903.81;5028937;28;20056;-80
2022/03/20 00:44:42;;;;;;;19.83;9.45;;;;;;;4.18;97.57;102899.25;5015406;28;20473;-80
2022/03/20 00:47:08;;;;;;;22.95;8.45;;;;;;;4.21;97.56;102905.56;5032099;28;20092;-80
2022/03/20 00:49:33;;;;;;;27.90;12.38;;;;;;;4.18;97.74;102893.84;5034692;28;20053;-80
2022/03/20 00:51:58;;;;;;;27.80;11.13;;;;;;;4.19;97.26;102893.81;5033948;28;20029;-79
2022/03/20 00:54:24;;;;;;;35.10;16.67;;;;;;;4.19;97.68;102893.81;5038509;28;20037;-80
2022/03/20 00:56:49;;;;;;;31.42;15.07;;;;;;;4.24;97.12;102893.72;5031452;28;20029;-80
2022/03/20 00:59:15;;;;;;;38.63;18.42;;;;;;;4.19;96.93;102877.53;5027581;28;20459;-80
2022/03/20 01:01:42;;;;;;;28.50;14.48;;;;;;;4.27;96.21;102879.25;5046827;28;20037;-80
2022/03/20 01:04:08;;;;;;;53.60;22.45;;;;;;;4.24;96.45;102883.78;5034209;28;20544;-80
2022/03/20 01:06:34;;;;;;;49.70;21.00;;;;;;;4.23;96.24;102872.94;5033674;28;20029;-80
2022/03/20 01:08:59;;;;;;;32.67;14.32;;;;;;;4.06;96.93;102873.28;5033986;28;20453;-79
2022/03/20 01:11:25;;;;;;;45.03;15.65;;;;;;;4.07;96.49;102875.09;5040524;28;20100;-79
2022/03/20 01:13:50;;;;;;;57.60;23.73;;;;;;;4.04;97.15;102867.03;5035248;28;20033;-79
2022/03/20 01:16:16;;;;;;;48.47;19.42;;;;;;;4.01;97.32;102867.06;5035101;28;20056;-80
2022/03/20 01:18:41;;;;;;;44.85;21.85;;;;;;;3.98;96.79;102857.16;5039164;28;20043;-80
2022/03/20 01:21:10;;;;;;;37.03;15.60;;;;;;;3.98;97.07;102854.47;5034242;28;20053;-80
2022/03/20 01:23:35;;;;;;;43.38;18.50;;;;;;;3.98;96.44;102850.88;5036379;28;20042;-79
2022/03/20 01:26:00;;;;;;;36.95;16.20;;;;;;;3.99;95.72;102852.66;5034372;28;20140;-79
2022/03/20 01:28:27;;;;;;;42.28;19.17;;;;;;;4.02;95.61;102836.34;5032739;28;20045;-80
2022/03/20 01:30:55;;;;;;;42.45;19.35;;;;;;;3.94;95.85;102836.50;5067583;28;20053;-80
2022/03/20 01:33:21;;;;;;;33.33;18.17;;;;;;;3.95;96.10;102834.66;5047843;28;20030;-80
2022/03/20 01:35:46;;;;;;;41.58;18.05;;;;;;;3.97;95.71;102827.41;5032365;28;20029;-81
2022/03/20 01:38:18;;;;;;;34.10;17.60;;;;;;;3.94;94.80;102828.34;5039323;28;20045;-80
2022/03/20 01:40:44;;;;;;;37.28;18.35;;;;;;;3.88;95.07;102833.88;5038279;28;20099;-81
2022/03/20 01:43:09;;;;;;;40.53;18.58;;;;;;;3.78;95.00;102816.03;5065508;28;20037;-81
2022/03/20 01:45:35;;;;;;;37.88;20.92;;;;;;;3.82;94.46;102823.16;5035146;28;20056;-81
2022/03/20 01:48:00;;;;;;;34.85;16.95;;;;;;;3.83;93.07;102812.28;5040834;28;20037;-80
2022/03/20 01:50:27;;;;;;;48.08;20.70;;;;;;;3.81;92.92;102813.25;5037342;28;20033;-80
2022/03/20 01:52:54;;;;;;;50.55;21.73;;;;;;;3.83;92.70;102816.84;5037894;28;20039;-80
2022/03/20 01:55:24;;;;;;;65.68;34.33;;;;;;;3.80;93.27;102808.75;5036583;28;20113;-79
2022/03/20 01:57:50;;;;;;;46.58;21.95;;;;;;;3.81;92.86;102805.13;5038253;28;20092;-79
2022/03/20 02:00:19;;;;;;;50.53;24.63;;;;;;;3.90;92.32;102795.91;5037045;28;20037;-81
2022/03/20 02:02:45;;;;;;;46.90;24.48;;;;;;;3.81;92.91;102787.06;5043535;28;20041;-81
2022/03/20 02:05:15;;;;;;;44.97;22.10;;;;;;;3.78;93.32;102797.94;5034628;28;20057;-81
2022/03/20 02:07:42;;;;;;;49.78;20.77;;;;;;;3.59;94.48;102794.72;5019770;28;20512;-80
2022/03/20 02:10:08;;;;;;;54.67;25.58;;;;;;;3.50;95.46;102789.44;5034761;28;20043;-80
2022/03/20 02:12:38;;;;;;;52.53;23.10;;;;;;;3.44;94.81;102785.06;5047810;28;20048;-81
2022/03/20 02:15:06;;;;;;;50.15;22.23;;;;;;;3.53;95.26;102783.09;5028502;28;20116;-80
2022/03/20 02:17:32;;;;;;;48.50;24.10;;;;;;;3.63;94.67;102780.16;5041956;28;20049;-80
2022/03/20 02:20:01;;;;;;;45.85;20.00;;;;;;;3.59;94.98;102778.47;5022542;28;20038;-80
2022/03/20 02:22:27;;;;;;;53.97;23.33;;;;;;;3.48;94.78;102769.63;5037802;28;20094;-80
2022/03/20 02:24:53;;;;;;;50.47;22.52;;;;;;;3.48;95.14;102773.22;5038574;28;20069;-80
2022/03/20 02:27:23;;;;;;;45.63;21.05;;;;;;;3.52;95.17;102767.75;5038738;28;20125;-80
2022/03/20 02:29:59;;;;;;;50.13;22.77;;;;;;;3.67;93.48;102770.16;5023748;28;20046;-80
2022/03/20 02:32:29;;;;;;;43.30;22.98;;;;;;;3.58;94.52;102754.13;5048693;28;20060;-80
2022/03/20 02:35:00;;;;;;;52.05;22.83;;;;;;;3.46;94.18;102753.41;5037579;28;20120;-80
2022/03/20 02:37:28;;;;;;;52.42;21.15;;;;;;;3.49;94.11;102747.94;5032791;28;20120;-80
2022/03/20 02:39:57;;;;;;;58.00;21.73;;;;;;;3.49;94.47;102745.25;5053171;28;20053;-80
2022/03/20 02:42:24;;;;;;;64.43;28.23;;;;;;;3.44;94.64;102736.31;5055608;28;20022;-80
2022/03/20 02:44:54;;;;;;;48.80;21.40;;;;;;;3.47;95.15;102741.66;5039869;28;20055;-80
2022/03/20 02:47:23;;;;;;;48.22;21.63;;;;;;;3.37;95.29;102731.03;5036908;28;20033;-81
2022/03/20 02:49:57;;;;;;;45.35;21.73;;;;;;;3.25;96.03;102727.63;5037307;28;20029;-81
2022/03/20 02:52:30;;;;;;;50.85;21.95;;;;;;;3.33;94.90;102722.09;5037502;28;20550;-81
2022/03/20 02:55:00;;;;;;;53.25;23.33;;;;;;;3.33;94.99;102724.78;5031049;28;20033;-80
2022/03/20 02:57:28;;;;;;;46.30;20.75;;;;;;;3.23;95.33;102723.16;5034260;28;20040;-80
2022/03/20 02:59:53;;;;;;;50.83;22.42;;;;;;;3.21;95.08;102708.75;5030134;28;20527;-80
2022/03/20 03:02:19;;;;;;;63.33;23.35;;;;;;;3.20;95.50;102721.41;5041501;28;20128;-79
2022/03/20 03:04:44;;;;;;;49.78;21.33;;;;;;;3.29;94.97;102720.34;5037367;28;20064;-80
2022/03/20 03:07:10;;;;;;;47.53;22.40;;;;;;;3.20;94.93;102721.41;5036584;28;20022;-80
2022/03/20 03:12:19;;;;;;;54.45;22.55;;;;;;;3.13;94.57;102704.41;5043453;28;20052;-80
2022/03/20 03:17:29;;;;;;;52.55;21.63;;;;;;;3.11;95.62;102708.91;5036288;28;20120;-79
2022/03/20 03:19:55;;;;;;;48.22;23.05;;;;;;;3.05;95.86;102700.00;5033577;28;20072;-80
2022/03/20 03:22:21;;;;;;;59.25;24.27;;;;;;;2.99;96.29;102698.31;5029778;28;20029;-79
2022/03/20 03:24:47;;;;;;;52.78;24.15;;;;;;;2.88;96.31;102676.84;5034078;28;20529;-79
2022/03/20 03:27:12;;;;;;;55.30;24.33;;;;;;;2.97;96.46;102683.03;5031148;28;20029;-78
2022/03/20 03:29:38;;;;;;;52.80;24.48;;;;;;;2.99;96.34;102686.63;5030259;28;20104;-80
2022/03/20 03:32:05;;;;;;;47.95;22.25;;;;;;;3.03;95.89;102680.22;5035773;28;20080;-79
2022/03/20 03:37:18;;;;;;;46.40;20.45;;;;;;;2.91;96.49;102678.63;5035312;28;20038;-80
2022/03/20 03:39:44;;;;;;;47.00;21.17;;;;;;;2.86;96.28;102667.88;5025538;28;20382;-82
2022/03/20 03:42:10;;;;;;;49.92;22.73;;;;;;;2.85;95.76;102671.50;5051328;28;20503;-80
2022/03/20 03:44:36;;;;;;;47.30;22.33;;;;;;;2.92;95.64;102658.78;5032803;28;20021;-80
2022/03/20 03:47:01;;;;;;;40.08;20.00;;;;;;;2.88;94.73;102657.91;5033250;28;20026;-80
2022/03/20 03:49:27;;;;;;;46.72;21.55;;;;;;;3.01;94.26;102660.41;5036766;28;20033;-79
2022/03/20 03:51:52;;;;;;;52.10;21.45;;;;;;;2.93;93.70;102647.03;5036648;28;20037;-79
2022/03/20 03:54:17;;;;;;;50.30;21.98;;;;;;;2.87;94.04;102652.53;5035303;28;20092;-80
2022/03/20 03:56:43;;;;;;;48.78;22.85;;;;;;;2.89;94.18;102650.72;5036886;28;20044;-80
2022/03/20 03:59:10;;;;;;;54.70;23.23;;;;;;;2.90;93.92;102649.78;5036558;28;20041;-80
2022/03/20 04:01:36;;;;;;;57.50;21.95;;;;;;;2.97;93.49;102639.72;5052830;28;20066;-80
2022/03/20 04:04:01;;;;;;;46.85;22.13;;;;;;;2.99;92.24;102627.97;5040342;28;20033;-79
2022/03/20 04:06:27;;;;;;;56.72;22.13;;;;;;;3.10;91.96;102623.25;5036637;28;20026;-80
2022/03/20 04:08:54;;;;;;;52.85;21.65;;;;;;;3.13;91.06;102601.56;5020693;28;20041;-80
2022/03/20 04:11:20;;;;;;;53.15;22.35;;;;;;;3.29;89.12;102612.94;5037583;28;20116;-80
2022/03/20 04:13:46;;;;;;;57.22;22.83;;;;;;;3.29;89.49;102604.81;5031038;28;20520;-80
2022/03/20 04:16:11;;;;;;;45.78;21.52;;;;;;;3.38;88.97;102592.94;5033373;28;20495;-80
2022/03/20 04:18:37;;;;;;;44.35;21.10;;;;;;;3.55;87.05;102599.81;5039144;28;20038;-80
2022/03/20 04:21:04;;;;;;;48.95;22.05;;;;;;;3.40;87.85;102593.78;5031864;28;20037;-80
2022/03/20 04:23:45;;;;;;;51.17;21.60;;;;;;;3.40;86.77;102601.91;5016102;28;20527;-80
2022/03/20 04:26:14;;;;;;;47.47;20.48;;;;;;;3.44;87.27;102597.31;5033183;28;20036;-80
2022/03/20 04:28:40;;;;;;;43.92;19.30;;;;;;;3.52;85.45;102598.03;5048959;28;20457;-80
2022/03/20 04:31:05;;;;;;;47.25;20.77;;;;;;;3.59;85.37;102588.88;5018296;28;20049;-79
2022/03/20 04:33:31;;;;;;;49.30;20.23;;;;;;;3.61;84.67;102584.31;5035648;28;21735;-79
2022/03/20 04:35:58;;;;;;;48.00;21.38;;;;;;;3.57;84.96;102581.69;5042443;28;20116;-80
2022/03/20 04:38:23;;;;;;;55.05;21.88;;;;;;;3.54;85.15;102570.94;5035721;28;20033;-79
2022/03/20 04:40:49;;;;;;;50.80;21.30;;;;;;;3.56;83.95;102588.03;5043938;28;20063;-80
2022/03/20 04:43:17;;;;;;;53.13;21.27;;;;;;;3.62;84.07;102590.59;5037582;28;20110;-79
2022/03/20 04:45:43;;;;;;;49.25;21.30;;;;;;;3.59;84.42;102587.97;5036233;28;20066;-79
2022/03/20 04:59:04;;;;;;;52.25;21.88;;;;;;;3.40;83.73;102565.81;5024030;28;20044;-79
2022/03/20 05:01:31;;;;;;;48.22;21.73;;;;;;;3.34;83.31;102556.00;5039285;28;20025;-81
2022/03/20 05:03:58;;;;;;;48.72;20.75;;;;;;;3.24;83.96;102554.41;5031281;28;20033;-79
2022/03/20 05:06:23;;;;;;;44.53;21.08;;;;;;;3.19;83.88;102543.69;5039743;28;20140;-80
2022/03/20 05:08:49;;;;;;;56.30;21.27;;;;;;;3.23;83.20;102548.13;5038073;28;20497;-81
2022/03/20 05:13:58;;;;;;;49.22;21.02;;;;;;;3.29;81.88;102544.38;5063059;28;20034;-81
2022/03/20 05:16:24;;;;;;;46.22;20.05;;;;;;;3.27;81.88;102548.94;5035578;28;20096;-80
2022/03/20 05:18:49;;;;;;;49.38;21.33;;;;;;;3.29;81.41;102539.84;5033458;28;20032;-81
2022/03/20 05:21:15;;;;;;;48.50;21.42;;;;;;;3.22;82.44;102545.44;5041050;28;20056;-81
2022/03/20 05:23:41;;;;;;;44.65;20.60;;;;;;;3.14;82.71;102534.78;5041717;28;20395;-81
2022/03/20 05:26:06;;;;;;;40.42;20.67;;;;;;;3.21;81.63;102538.25;5045139;28;20044;-80
2022/03/20 05:28:32;;;;;;;46.22;20.85;;;;;;;3.15;81.78;102535.66;5060967;28;20393;-81
2022/03/20 05:30:58;;;;;;;43.25;20.60;;;;;;;3.13;81.62;102541.09;5020076;28;20045;-81
2022/03/20 05:33:24;;;;;;;42.55;19.75;;;;;;;3.06;81.52;102523.22;5039655;28;20029;-80
2022/03/20 05:35:49;;;;;;;43.28;19.23;;;;;;;3.10;81.63;102533.06;5016192;28;20048;-81
2022/03/20 05:38:15;;;;;;;46.17;20.23;;;;;;;3.15;80.93;102525.75;5040430;28;20064;-80
2022/03/20 05:40:42;;;;;;;44.70;19.35;;;;;;;3.17;80.75;102523.00;5043844;28;20029;-81
2022/03/20 05:43:08;;;;;;;45.95;19.90;;;;;;;3.17;80.77;102532.00;5041821;28;20570;-81
2022/03/20 05:45:37;;;;;;;39.28;18.17;;;;;;;3.25;79.29;102513.78;5039956;28;20033;-80
2022/03/20 05:48:03;;;;;;;39.97;18.35;;;;;;;3.25;79.95;102518.31;5040820;28;20080;-81
2022/03/20 05:50:29;;;;;;;39.45;18.58;;;;;;;3.22;79.72;102513.84;5031473;28;20042;-81
2022/03/20 05:52:54;;;;;;;41.67;19.55;;;;;;;3.17;79.47;102517.59;5041993;28;20036;-81
2022/03/20 05:58:01;;;;;;;43.97;19.67;;;;;;;3.22;79.28;102519.28;5036362;28;20026;-80
2022/03/20 05:58:06;;;;;;;40.65;18.42;;;;;;;3.24;79.21;102522.81;5051128;28;20045;-80
2022/03/20 06:00:32;;;;;;;43.10;19.02;;;;;;;3.24;79.26;102519.22;5050655;28;20034;-79
2022/03/20 06:02:58;;;;;;;35.65;16.58;;;;;;;3.28;79.54;102521.84;5059567;28;20467;-80
2022/03/20 06:05:23;;;;;;;42.95;18.75;;;;;;;3.33;78.56;102510.94;5029217;28;20100;-78
2022/03/20 06:07:49;;;;;;;35.20;17.73;;;;;;;3.25;79.17;102513.78;5038157;28;20033;-82
2022/03/20 06:10:17;;;;;;;37.28;17.98;;;;;;;3.29;78.75;102503.78;5038964;28;20095;-79
2022/03/20 06:12:43;;;;;;;36.70;17.77;;;;;;;3.45;77.81;102513.34;5040893;28;20033;-79
2022/03/20 06:15:09;;;;;;;40.10;18.88;;;;;;;3.46;77.99;102514.22;5022068;28;20496;-80
2022/03/20 06:17:40;;;;;;;38.20;17.25;;;;;;;3.39;78.39;102507.19;5044830;28;20033;-79
2022/03/20 06:20:06;;;;;;;37.65;17.60;;;;;;;3.49;78.21;102520.50;5040161;28;20033;-80
2022/03/20 06:22:33;;;;;;;40.30;18.35;;;;;;;3.52;78.15;102518.63;5018508;28;20041;-80
2022/03/20 06:24:58;;;;;;;36.00;18.05;;;;;;;3.55;77.04;102508.63;5040748;28;20660;-78
2022/03/20 06:27:24;;;;;;;37.13;18.50;;;;;;;3.57;77.53;102520.28;5038823;28;20030;-78
2022/03/20 06:29:50;;;;;;;38.15;17.38;;;;;;;3.62;77.07;102520.19;5039350;28;20050;-78
2022/03/20 06:32:15;;;;;;;40.15;18.45;;;;;;;3.58;77.96;102516.66;5024316;28;20105;-79
2022/03/20 06:34:42;;;;;;;37.47;17.65;;;;;;;3.72;76.01;102523.56;5020203;28;20034;-79
2022/03/20 06:37:08;;;;;;;33.65;16.25;;;;;;;3.73;76.10;102514.53;5036089;28;20078;-79
2022/03/20 06:39:33;;;;;;;39.88;16.73;;;;;;;3.73;75.45;102499.16;5039776;28;20075;-79
2022/03/20 06:42:00;;;;;;;35.92;17.13;;;;;;;3.81;75.63;102497.16;5043786;28;20045;-77
2022/03/20 06:44:26;;;;;;;40.78;18.05;;;;;;;3.97;74.58;102499.50;5038727;28;20040;-79
2022/03/20 06:46:51;;;;;;;33.17;17.30;;;;;;;3.96;74.21;102495.00;5039263;28;20047;-78
2022/03/20 06:49:17;;;;;;;33.05;17.00;;;;;;;4.05;73.52;102494.78;5038928;28;20132;-78
2022/03/20 06:51:42;;;;;;;39.80;17.98;;;;;;;4.13;73.25;102492.78;5040170;28;20026;-79
2022/03/20 06:54:08;;;;;;;33.88;17.52;;;;;;;4.09;73.84;102480.22;5038925;28;20041;-78
2022/03/20 06:56:34;;;;;;;33.58;16.45;;;;;;;4.16;72.58;102480.94;5037193;28;20045;-77
2022/03/20 06:58:59;;;;;;;33.25;16.83;;;;;;;4.09;72.90;102476.63;5032691;28;20049;-79
2022/03/20 07:01:25;;;;;;;33.28;15.32;;;;;;;4.20;71.40;102483.53;5048576;28;20388;-78
2022/03/20 07:03:51;;;;;;;37.08;16.15;;;;;;;4.27;70.72;102484.25;5028886;28;20480;-77
2022/03/20 07:06:16;;;;;;;40.83;16.88;;;;;;;4.37;69.42;102466.81;5035652;28;20026;-79
2022/03/20 07:08:41;;;;;;;42.72;17.73;;;;;;;4.50;70.05;102471.91;5027243;28;20030;-78
2022/03/20 07:11:07;;;;;;;34.58;15.88;;;;;;;4.50;69.36;102467.38;5043264;28;20037;-78
2022/03/20 07:13:53;;;;;;;40.58;17.45;;;;;;;4.47;69.74;102453.91;5060500;28;20025;-78
2022/03/20 07:16:21;;;;;;;37.72;16.80;;;;;;;4.44;69.51;102451.25;5061595;28;20037;-78
2022/03/20 07:18:46;;;;;;;34.72;16.80;;;;;;;4.47;69.74;102434.03;5039521;28;20041;-78
2022/03/20 07:21:15;;;;;;;30.23;15.88;;;;;;;4.62;67.57;102430.88;5035208;28;20044;-78
2022/03/20 07:23:40;;;;;;;33.15;16.35;;;;;;;4.53;67.33;102434.75;5059792;28;20045;-79
2022/03/20 07:31:34;;;;;;;33.20;15.82;;;;;;;4.48;67.40;102433.97;5032993;28;20423;-77
2022/03/20 07:33:59;;;;;;;29.60;15.77;;;;;;;4.50;67.96;102417.69;5029432;28;20136;-79
2022/03/20 07:36:24;;;;;;;38.03;15.18;;;;;;;4.68;66.63;102437.97;5036000;28;20499;-80
2022/03/20 07:38:50;;;;;;;35.65;16.38;;;;;;;4.60;67.78;102424.59;5017790;28;20057;-79
2022/03/20 07:41:16;;;;;;;39.05;16.60;;;;;;;4.59;67.40;102415.59;5032659;28;20064;-79
2022/03/20 07:43:42;;;;;;;30.17;15.23;;;;;;;4.65;66.71;102417.22;5039748;28;20036;-79
2022/03/20 07:46:08;;;;;;;30.30;14.73;;;;;;;4.62;66.76;102405.56;5036756;28;20033;-78
2022/03/20 07:48:34;;;;;;;30.92;14.80;;;;;;;4.57;66.94;102412.00;5046761;28;20072;-79
2022/03/20 07:50:59;;;;;;;32.97;16.33;;;;;;;4.55;67.09;102403.03;5037217;28;20033;-78
2022/03/20 07:53:27;;;;;;;31.75;15.15;;;;;;;4.60;66.15;102398.34;5023072;28;20037;-78
2022/03/20 07:55:53;;;;;;;33.15;16.08;;;;;;;4.62;67.25;102408.28;5030757;28;20030;-78
2022/03/20 07:58:20;;;;;;;29.98;15.48;;;;;;;4.70;66.78;102401.69;5028342;28;20029;-79
2022/03/20 08:00:46;;;;;;;37.67;16.77;;;;;;;4.83;66.58;102406.78;5015983;28;20583;-78
2022/03/20 08:03:11;;;;;;;33.25;15.57;;;;;;;4.95;65.29;102409.09;5011720;28;20029;-79
2022/03/20 08:05:37;;;;;;;34.47;15.98;;;;;;;4.99;65.19;102408.06;5030385;28;20080;-78
2022/03/20 08:08:03;;;;;;;32.72;16.27;;;;;;;5.14;65.67;102401.28;5033136;28;20052;-79
2022/03/20 08:10:30;;;;;;;34.60;16.55;;;;;;;5.17;64.87;102389.44;5035433;28;20033;-78
2022/03/20 08:12:55;;;;;;;31.27;15.38;;;;;;;5.26;65.17;102392.75;5037510;28;20495;-79
2022/03/20 08:15:21;;;;;;;33.65;16.33;;;;;;;5.25;64.45;102404.56;5049588;28;20041;-79
2022/03/20 08:17:50;;;;;;;29.63;15.90;;;;;;;5.25;63.64;102388.25;5023004;28;20524;-80
2022/03/20 08:20:16;;;;;;;38.63;15.98;;;;;;;5.23;64.20;102394.66;5024620;28;20491;-79
2022/03/20 08:22:42;;;;;;;32.22;16.23;;;;;;;5.29;64.62;102395.34;5040602;28;20472;-80
2022/03/20 08:25:10;;;;;;;30.75;16.50;;;;;;;5.31;64.97;102389.88;5022457;28;20497;-79
2022/03/20 08:27:46;;;;;;;31.35;16.35;;;;;;;5.35;65.03;102388.84;5042894;28;20030;-80
2022/03/20 08:30:15;;;;;;;37.20;16.38;;;;;;;5.40;65.04;102396.84;5012147;28;20138;-79
2022/03/20 08:32:41;;;;;;;34.10;16.48;;;;;;;5.65;63.70;102381.50;5028893;28;20037;-79
2022/03/20 08:35:07;;;;;;;33.63;16.17;;;;;;;5.77;63.02;102384.75;5021704;28;20536;-79
2022/03/20 08:37:35;;;;;;;39.33;16.75;;;;;;;6.27;61.74;102384.81;5010256;28;20073;-80
2022/03/20 08:40:02;;;;;;;34.35;15.95;;;;;;;6.30;60.77;102384.72;5030123;28;20041;-79
2022/03/20 08:42:27;;;;;;;30.20;16.15;;;;;;;6.36;61.39;102383.59;5051000;28;20487;-79
2022/03/20 08:44:53;;;;;;;36.17;17.27;;;;;;;6.27;60.60;102379.38;5024066;28;20038;-78
2022/03/20 08:47:19;;;;;;;31.95;16.33;;;;;;;6.20;61.65;102391.44;5024297;28;20112;-79
2022/03/20 08:49:45;;;;;;;33.00;16.70;;;;;;;6.14;61.83;102380.78;5031828;28;20021;-79
2022/03/20 08:52:10;;;;;;;39.47;16.98;;;;;;;6.30;62.94;102384.72;5037107;28;20033;-80
2022/03/20 08:54:36;;;;;;;32.70;16.90;;;;;;;6.32;63.13;102374.66;5037024;28;20033;-80
2022/03/20 08:57:05;;;;;;;30.95;16.45;;;;;;;6.42;62.21;102376.09;5049049;28;20034;-78
2022/03/20 08:59:31;;;;;;;35.72;18.00;;;;;;;6.42;61.00;102367.94;5028077;28;20472;-81
2022/03/20 09:01:56;;;;;;;34.83;17.42;;;;;;;6.37;60.69;102366.34;5028405;28;20037;-78
2022/03/20 09:04:22;;;;;;;40.78;18.75;;;;;;;6.53;61.41;102383.00;5039025;28;20130;-79
2022/03/20 09:06:49;;;;;;;37.67;18.45;;;;;;;7.18;58.84;102363.19;5030064;28;20489;-79
2022/03/20 09:09:15;;;;;;;35.22;18.60;;;;;;;8.26;57.61;102372.22;5030208;28;20045;-78
2022/03/20 09:11:41;;;;;;;33.20;18.48;;;;;;;8.83;54.54;102352.34;5040308;28;20033;-79
2022/03/20 09:14:07;;;;;;;41.38;19.25;;;;;;;9.00;53.63;102338.78;5042510;28;20187;-79
2022/03/20 09:19:18;;;;;;;37.25;19.52;;;;;;;9.23;52.71;102342.25;5050412;28;20157;-80
2022/03/20 09:21:44;;;;;;;34.78;18.50;;;;;;;9.58;51.68;102345.03;5025814;28;20033;-79
2022/03/20 09:24:09;;;;;;;37.08;20.17;;;;;;;9.57;51.10;102335.97;5016713;28;20499;-79
2022/03/20 09:26:35;;;;;;;42.92;20.95;;;;;;;9.88;51.05;102339.81;5038469;28;20476;-79
2022/03/20 09:29:01;;;;;;;40.83;21.42;;;;;;;9.97;50.90;102343.94;5034326;28;20479;-80
2022/03/20 09:31:27;;;;;;;44.22;21.83;;;;;;;10.18;49.98;102330.06;5034520;28;20086;-80
2022/03/20 09:33:52;;;;;;;41.25;20.45;;;;;;;9.64;50.73;102327.41;5031899;28;20060;-79
2022/03/20 09:36:18;;;;;;;35.15;19.65;;;;;;;9.32;51.68;102347.22;5053173;28;20029;-80
2022/03/20 09:38:44;;;;;;;40.47;21.55;;;;;;;8.46;53.03;102333.13;5017963;28;20450;-80
2022/03/20 09:41:11;;;;;;;40.60;20.60;;;;;;;8.12;55.24;102311.03;5031591;28;20060;-79
2022/03/20 09:43:42;;;;;;;42.20;21.70;;;;;;;7.96;56.73;102322.66;5029630;28;20060;-80
2022/03/20 09:46:08;;;;;;;49.60;22.10;;;;;;;7.78;57.26;102324.34;5022042;28;20036;-78
2022/03/20 09:48:34;;;;;;;42.17;22.10;;;;;;;7.77;59.02;102332.59;5043086;28;20115;-79
2022/03/20 09:51:03;;;;;;;44.47;22.23;;;;;;;7.69;60.75;102335.63;5031047;28;20038;-79
2022/03/20 09:53:29;;;;;;;41.67;21.75;;;;;;;7.69;58.63;102346.53;5029994;28;20042;-79
2022/03/20 09:55:55;;;;;;;45.80;22.13;;;;;;;7.52;58.88;102347.28;5030339;28;20041;-79
2022/03/20 09:58:25;;;;;;;45.33;21.83;;;;;;;7.49;59.43;102351.03;5039977;28;20072;-79
2022/03/20 10:00:52;;;;;;;45.95;21.27;;;;;;;7.37;59.87;102359.69;5036621;28;20492;-79
2022/03/20 10:03:20;;;;;;;41.03;21.20;;;;;;;7.34;60.07;102352.53;5034600;28;20038;-79
2022/03/20 10:06:01;;;;;;;41.13;21.95;;;;;;;7.33;60.34;102349.91;5034471;28;20040;-79
2022/03/20 10:08:28;;;;;;;41.58;21.27;;;;;;;7.33;60.03;102358.94;5034224;28;20392;-80
2022/03/20 10:11:11;;;;;;;43.47;21.55;;;;;;;7.22;61.74;102358.50;5025510;28;20424;-79
2022/03/20 10:13:38;;;;;;;39.63;21.35;;;;;;;7.27;60.94;102361.91;5035092;28;20055;-80
2022/03/20 10:16:17;;;;;;;41.92;20.50;;;;;;;7.21;61.81;102364.88;5030925;28;20519;-79
2022/03/20 10:18:42;;;;;;;32.95;17.42;;;;;;;7.11;62.21;102358.91;5036637;28;20431;-78
2022/03/20 10:21:09;;;;;;;45.30;22.50;;;;;;;7.13;62.77;102351.59;5038024;28;20029;-78
2022/03/20 10:23:36;;;;;;;46.22;21.77;;;;;;;7.15;64.57;102359.72;5025406;28;20076;-78
2022/03/20 10:26:18;;;;;;;42.50;21.27;;;;;;;6.95;67.63;102379.53;5031961;28;20118;-79
2022/03/20 10:28:49;;;;;;;45.35;22.83;;;;;;;6.89;73.31;102369.78;5028690;28;20037;-81
2022/03/20 10:31:22;;;;;;;38.58;20.63;;;;;;;6.68;74.80;102374.22;5058615;28;20049;-79
2022/03/20 10:34:05;;;;;;;40.47;21.50;;;;;;;6.53;80.58;102385.72;5034357;28;20049;-79
2022/03/20 10:36:33;;;;;;;43.58;24.23;;;;;;;6.40;82.49;102372.53;5029018;28;20103;-78
2022/03/20 10:38:58;;;;;;;48.03;23.77;;;;;;;6.33;84.20;102371.00;5024552;28;20043;-79
2022/03/20 10:41:26;;;;;;;51.63;23.23;;;;;;;6.24;82.52;102371.34;5037630;28;20037;-78
2022/03/20 10:43:54;;;;;;;49.85;23.67;;;;;;;6.27;81.73;102368.50;5020973;28;20037;-79
2022/03/20 10:46:24;;;;;;;53.55;24.60;;;;;;;6.36;80.06;102360.03;5019727;28;20125;-78
2022/03/20 10:48:55;;;;;;;49.38;23.92;;;;;;;6.38;81.17;102368.13;5012249;28;20036;-78
2022/03/20 10:51:38;;;;;;;49.05;24.60;;;;;;;6.43;80.27;102366.13;5033583;28;20057;-77
2022/03/20 10:54:10;;;;;;;48.53;23.38;;;;;;;6.47;81.82;102358.72;5038475;28;20037;-77
2022/03/20 10:56:37;;;;;;;47.10;24.45;;;;;;;6.51;83.14;102353.13;5063164;28;20449;-78
2022/03/20 10:59:16;;;;;;;47.63;23.75;;;;;;;6.52;83.59;102354.00;5036215;28;20492;-79
2022/03/20 11:01:44;;;;;;;50.45;23.90;;;;;;;6.52;80.92;102357.59;5012846;28;20105;-77
2022/03/20 11:04:11;;;;;;;44.38;22.90;;;;;;;6.62;81.64;102358.13;5029336;28;20037;-78
2022/03/20 11:06:37;;;;;;;49.10;23.15;;;;;;;6.64;81.56;102353.53;5035389;28;20037;-80
2022/03/20 11:09:04;;;;;;;47.25;23.92;;;;;;;6.75;80.85;102351.25;5025787;28;20044;-77
2022/03/20 11:11:33;;;;;;;47.17;25.35;;;;;;;6.69;79.25;102354.25;5030642;28;20040;-79
2022/03/20 11:13:59;;;;;;;46.95;23.70;;;;;;;6.81;80.20;102348.31;5032802;28;20044;-78
2022/03/20 11:16:26;;;;;;;46.15;24.27;;;;;;;6.88;80.60;102356.25;5034650;28;20543;-79
2022/03/20 11:18:54;;;;;;;43.78;22.90;;;;;;;6.89;79.54;102348.00;5033418;28;20025;-79
2022/03/20 11:21:23;;;;;;;50.03;24.85;;;;;;;6.98;78.66;102355.81;5033556;28;20037;-78
2022/03/20 11:23:53;;;;;;;47.50;23.77;;;;;;;7.01;78.68;102343.91;5027195;28;20041;-79
2022/03/20 11:26:25;;;;;;;46.97;23.67;;;;;;;7.16;80.39;102350.56;5045029;28;20041;-79
2022/03/20 11:28:55;;;;;;;45.17;24.25;;;;;;;7.23;77.46;102345.75;5036282;28;20108;-79
2022/03/20 11:31:21;;;;;;;57.13;24.90;;;;;;;7.15;78.40;102340.63;5010797;28;20046;-77
2022/03/20 11:33:47;;;;;;;46.45;24.23;;;;;;;7.23;75.64;102343.94;5031516;28;20059;-78
2022/03/20 11:36:13;;;;;;;49.10;24.17;;;;;;;7.23;77.46;102346.66;5032886;28;20034;-79
2022/03/20 11:38:41;;;;;;;47.97;24.10;;;;;;;7.19;75.04;102347.72;5029965;28;20579;-79
2022/03/20 11:41:20;;;;;;;49.95;24.55;;;;;;;7.40;73.50;102342.34;5031781;28;20061;-78
2022/03/20 11:44:11;;;;;;;52.85;23.85;;;;;;;7.42;75.29;102340.44;5034422;28;20083;-78
2022/03/20 11:46:37;;;;;;;52.80;25.63;;;;;;;7.48;73.57;102342.91;5022226;28;20065;-79